Time;durP1;ratioP1;P1;durP2;ratioP2;P2;SDS_P1;SDS_P2;PMS_P1;PMS_P2;Temp;Humidity;BMP_temperature;BMP_pressure;BME280_temperature;BME280_humidity;BME280_pressure;Samples;Min_cycle;Max_cycle;Signal;HPM_P1;HPM_P2
2022/03/09 00:00:47;;;;;;;57.58;22.55;;;;;;;0.57;67.99;101572.59;4878932;29;20044;-72
2022/03/09 00:03:16;;;;;;;58.53;22.80;;;;;;;0.50;69.42;101566.31;4883453;29;20052;-72
2022/03/09 00:05:43;;;;;;;52.20;24.50;;;;;;;0.54;68.77;101567.59;4877604;29;20413;-72
2022/03/09 00:08:12;;;;;;;49.92;21.63;;;;;;;0.58;68.76;101559.97;4876641;29;20571;-72
2022/03/09 00:10:39;;;;;;;42.78;20.27;;;;;;;0.50;69.05;101566.31;4877424;29;20527;-72
2022/03/09 00:13:08;;;;;;;43.45;19.27;;;;;;;0.42;69.58;101559.16;4877547;29;20060;-72
2022/03/09 00:15:36;;;;;;;32.03;15.90;;;;;;;0.47;69.07;101562.13;4878986;29;20076;-72
2022/03/09 00:18:54;;;;;;;31.90;15.50;;;;;;;0.52;68.95;101564.25;4879247;29;20060;-72
2022/03/09 00:21:22;;;;;;;31.15;15.52;;;;;;;0.56;69.13;101559.31;4878187;29;20497;-71
2022/03/09 00:23:50;;;;;;;34.92;15.80;;;;;;;0.55;69.08;101563.03;4878691;29;20053;-72
2022/03/09 00:26:18;;;;;;;33.33;15.05;;;;;;;0.52;69.77;101562.41;4878708;29;20049;-72
2022/03/09 00:28:47;;;;;;;31.52;15.38;;;;;;;0.40;70.23;101564.72;4878487;29;20421;-72
2022/03/09 00:31:15;;;;;;;30.98;14.80;;;;;;;0.30;69.30;101555.28;4878105;29;20505;-72
2022/03/09 00:33:44;;;;;;;34.30;15.02;;;;;;;0.25;69.64;101563.91;4878771;29;20048;-72
2022/03/09 00:36:12;;;;;;;31.38;14.88;;;;;;;0.20;70.24;101569.03;4878406;29;20049;-72
2022/03/09 00:38:41;;;;;;;32.50;14.73;;;;;;;0.21;69.70;101571.53;4888198;29;20049;-72
2022/03/09 00:41:09;;;;;;;28.95;14.40;;;;;;;0.27;69.60;101569.94;4879169;29;20068;-72
2022/03/09 00:43:37;;;;;;;31.55;14.23;;;;;;;0.36;69.14;101573.38;4878344;29;20485;-72
2022/03/09 00:46:05;;;;;;;28.10;14.13;;;;;;;0.30;69.83;101569.59;4877648;29;20045;-72
2022/03/09 00:48:38;;;;;;;29.13;14.02;;;;;;;0.15;69.95;101574.97;4872025;29;20061;-72
2022/03/09 00:51:06;;;;;;;29.13;15.20;;;;;;;0.05;70.17;101571.72;4878520;29;20049;-72
2022/03/09 00:53:38;;;;;;;32.40;16.20;;;;;;;0.01;70.65;101567.72;4879238;29;20056;-72
2022/03/09 00:56:07;;;;;;;31.60;14.55;;;;;;;0.13;70.45;101567.06;4878769;29;20053;-72
2022/03/09 00:58:39;;;;;;;33.85;15.55;;;;;;;0.09;70.82;101565.75;4881940;29;20045;-72
2022/03/09 01:01:07;;;;;;;30.30;12.75;;;;;;;0.04;70.48;101572.75;4881895;29;20067;-72
2022/03/09 01:03:36;;;;;;;28.85;14.32;;;;;;;-0.04;70.95;101574.47;4881974;29;20084;-71
2022/03/09 01:06:04;;;;;;;31.73;14.95;;;;;;;-0.09;71.79;101573.38;4882577;29;20484;-72
2022/03/09 01:08:34;;;;;;;29.05;13.50;;;;;;;-0.15;71.44;101574.94;4882094;29;20052;-72
2022/03/09 01:11:02;;;;;;;28.25;13.93;;;;;;;-0.18;71.48;101569.94;4881947;29;20057;-72
2022/03/09 01:13:30;;;;;;;30.38;14.35;;;;;;;-0.20;71.97;101566.59;4882427;29;20056;-72
2022/03/09 01:15:57;;;;;;;34.35;14.75;;;;;;;-0.20;72.09;101561.22;4882459;29;20049;-72
2022/03/09 01:18:27;;;;;;;30.65;14.88;;;;;;;-0.16;72.10;101557.13;4882352;29;20049;-72
2022/03/09 01:20:55;;;;;;;32.88;15.63;;;;;;;-0.10;72.09;101555.56;4882128;29;20053;-72
2022/03/09 01:23:23;;;;;;;35.25;16.08;;;;;;;-0.10;72.46;101556.38;4882190;29;20057;-72
2022/03/09 01:25:54;;;;;;;33.70;14.73;;;;;;;-0.12;72.78;101557.56;4881596;29;20045;-72
2022/03/09 01:28:22;;;;;;;26.50;14.35;;;;;;;-0.03;72.17;101548.41;4881807;29;20389;-72
2022/03/09 01:30:50;;;;;;;30.25;14.02;;;;;;;-0.14;72.44;101544.34;4882104;29;20061;-72
2022/03/09 01:33:18;;;;;;;30.80;14.35;;;;;;;-0.26;73.63;101545.81;4882123;29;20057;-72
2022/03/09 01:35:49;;;;;;;29.50;14.57;;;;;;;-0.34;73.68;101544.84;4880089;29;20060;-72
2022/03/09 01:38:20;;;;;;;36.65;14.93;;;;;;;-0.36;73.12;101540.66;4886830;29;20052;-72
2022/03/09 01:40:50;;;;;;;29.13;15.30;;;;;;;-0.32;73.28;101544.66;4885196;29;20053;-72
2022/03/09 01:43:19;;;;;;;28.05;14.20;;;;;;;-0.33;73.18;101545.69;4881480;29;20056;-72
2022/03/09 01:45:47;;;;;;;30.08;14.13;;;;;;;-0.32;73.47;101534.75;4880913;29;20049;-72
2022/03/09 01:48:15;;;;;;;35.22;15.48;;;;;;;-0.18;72.84;101534.94;4881234;29;20064;-72
2022/03/09 01:50:44;;;;;;;30.60;14.65;;;;;;;-0.18;72.69;101534.94;4881836;29;20056;-72
2022/03/09 01:53:12;;;;;;;28.83;14.73;;;;;;;-0.22;72.87;101537.16;4881174;29;20061;-72
2022/03/09 01:55:40;;;;;;;31.35;15.23;;;;;;;-0.43;73.80;101549.47;4881681;29;20053;-72
2022/03/09 01:58:08;;;;;;;34.13;15.07;;;;;;;-0.49;73.46;101549.38;4881555;29;20045;-72
2022/03/09 02:00:37;;;;;;;34.58;15.43;;;;;;;-0.53;74.37;101550.75;4881693;29;20519;-72
2022/03/09 02:03:05;;;;;;;33.53;16.73;;;;;;;-0.61;74.13;101554.34;4881098;29;20509;-72
2022/03/09 02:05:34;;;;;;;31.73;14.23;;;;;;;-0.63;74.89;101557.19;4881265;29;20060;-71
2022/03/09 02:10:51;;;;;;;32.22;14.70;;;;;;;-0.66;74.42;101548.66;4880945;29;20057;-72
2022/03/09 02:13:19;;;;;;;32.85;13.95;;;;;;;-0.64;74.70;101544.78;4881464;29;20053;-72
2022/03/09 02:15:46;;;;;;;30.50;15.27;;;;;;;-0.60;74.24;101551.47;4881505;29;20049;-72
2022/03/09 02:18:14;;;;;;;27.98;13.18;;;;;;;-0.52;73.63;101558.63;4879744;29;20045;-71
2022/03/09 02:20:44;;;;;;;33.38;14.52;;;;;;;-0.56;74.21;101558.16;4880857;29;20408;-71
2022/03/09 02:23:13;;;;;;;30.88;13.65;;;;;;;-0.57;73.62;101545.75;4881612;29;20053;-72
2022/03/09 02:25:43;;;;;;;24.15;13.50;;;;;;;-0.57;73.36;101545.75;4880973;29;20064;-72
2022/03/09 02:28:11;;;;;;;27.58;13.25;;;;;;;-0.53;73.14;101537.31;4880863;29;20519;-72
2022/03/09 02:30:39;;;;;;;29.17;13.18;;;;;;;-0.51;73.71;101540.63;4880857;29;20053;-72
2022/03/09 02:33:07;;;;;;;29.92;13.77;;;;;;;-0.52;74.39;101538.97;4880994;29;20049;-72
2022/03/09 02:35:35;;;;;;;25.83;13.02;;;;;;;-0.60;73.76;101538.03;4880668;29;20045;-72
2022/03/09 02:38:03;;;;;;;30.58;13.35;;;;;;;-0.51;73.14;101546.00;4885655;29;20052;-72
2022/03/09 02:40:31;;;;;;;34.47;14.55;;;;;;;-0.57;73.52;101534.16;4885726;29;20049;-72
2022/03/09 02:42:59;;;;;;;31.55;14.73;;;;;;;-0.62;73.74;101544.59;4880877;29;20057;-72
2022/03/09 02:45:27;;;;;;;30.83;13.73;;;;;;;-0.70;73.84;101550.88;4880706;29;20497;-72
2022/03/09 02:47:56;;;;;;;36.35;14.95;;;;;;;-0.75;74.25;101554.13;4880029;29;20056;-72
2022/03/09 02:50:24;;;;;;;31.00;13.52;;;;;;;-0.78;74.52;101551.78;4880550;29;20049;-72
2022/03/09 02:52:52;;;;;;;33.20;14.23;;;;;;;-0.79;74.30;101554.66;4880472;29;20049;-72
2022/03/09 02:55:20;;;;;;;30.30;13.85;;;;;;;-0.79;74.36;101552.81;4880690;29;20583;-72
2022/03/09 02:57:48;;;;;;;28.20;13.18;;;;;;;-0.79;74.65;101557.34;4880832;29;20496;-72
2022/03/09 03:00:16;;;;;;;31.38;14.30;;;;;;;-0.73;74.64;101556.63;4880505;29;20065;-72
2022/03/09 03:02:44;;;;;;;25.08;13.73;;;;;;;-0.74;74.52;101557.66;4880661;29;20056;-72
2022/03/09 03:05:12;;;;;;;27.40;12.90;;;;;;;-0.77;74.24;101566.06;4880530;29;20057;-71
2022/03/09 03:07:40;;;;;;;30.52;12.90;;;;;;;-0.77;73.88;101560.69;4880481;29;20053;-72
2022/03/09 03:10:09;;;;;;;30.38;13.27;;;;;;;-0.79;74.44;101562.72;4880192;29;20064;-72
2022/03/09 03:12:37;;;;;;;29.65;13.20;;;;;;;-0.57;74.12;101567.25;4880575;29;20053;-72
2022/03/09 03:15:06;;;;;;;34.88;14.45;;;;;;;-0.57;74.08;101569.94;4880346;29;20068;-72
2022/03/09 03:17:37;;;;;;;22.42;12.55;;;;;;;-0.64;73.88;101563.59;4880190;29;20054;-72
2022/03/09 03:20:06;;;;;;;28.63;12.70;;;;;;;-0.72;74.83;101559.16;4879508;29;20064;-72
2022/03/09 03:22:34;;;;;;;31.55;12.95;;;;;;;-0.75;74.74;101545.22;4880068;29;20064;-72
2022/03/09 03:25:02;;;;;;;28.30;13.90;;;;;;;-0.82;75.26;101561.25;4880224;29;20389;-72
2022/03/09 03:27:30;;;;;;;28.73;13.20;;;;;;;-0.86;74.90;101550.00;4879584;29;20405;-72
2022/03/09 03:29:58;;;;;;;27.10;13.18;;;;;;;-0.68;74.68;101555.06;4880393;29;20053;-72
2022/03/09 03:32:26;;;;;;;26.13;13.93;;;;;;;-0.62;74.67;101558.91;4880068;29;20052;-72
2022/03/09 03:34:54;;;;;;;32.70;14.32;;;;;;;-0.67;74.77;101550.53;4880026;29;20052;-72
2022/03/09 03:37:22;;;;;;;24.88;12.43;;;;;;;-0.69;74.85;101552.56;4879710;29;20045;-72
2022/03/09 03:39:53;;;;;;;31.17;14.25;;;;;;;-0.82;75.62;101547.81;4868005;29;20049;-72
2022/03/09 03:42:22;;;;;;;25.58;13.25;;;;;;;-0.88;75.54;101549.34;4879900;29;20069;-72
2022/03/09 03:44:50;;;;;;;28.15;13.77;;;;;;;-0.88;75.45;101552.03;4866898;29;20049;-71
2022/03/09 03:47:18;;;;;;;32.17;14.48;;;;;;;-0.87;75.51;101556.38;4879703;29;20052;-72
2022/03/09 03:49:46;;;;;;;30.55;13.75;;;;;;;-0.71;74.44;101555.44;4879577;29;20378;-72
2022/03/09 03:52:14;;;;;;;28.83;13.40;;;;;;;-0.86;74.81;101547.31;4879445;29;20049;-72
2022/03/09 03:54:41;;;;;;;30.25;13.07;;;;;;;-0.87;74.40;101552.88;4879313;29;20049;-71
2022/03/09 03:57:09;;;;;;;27.48;13.40;;;;;;;-0.99;75.91;101550.59;4878443;29;20061;-72
2022/03/09 03:59:37;;;;;;;31.52;14.68;;;;;;;-1.10;75.55;101551.84;4879256;29;20060;-72
2022/03/09 04:02:05;;;;;;;31.45;14.15;;;;;;;-1.16;76.37;101547.19;4879303;29;20045;-72
2022/03/09 04:04:34;;;;;;;27.00;12.88;;;;;;;-1.23;76.27;101551.59;4878440;29;20053;-72
2022/03/09 04:07:02;;;;;;;25.05;13.77;;;;;;;-1.31;76.81;101546.28;4879725;29;20049;-72
2022/03/09 04:09:30;;;;;;;28.50;13.40;;;;;;;-1.31;76.67;101548.97;4879297;29;20065;-72
2022/03/09 04:11:58;;;;;;;28.08;12.48;;;;;;;-1.24;76.57;101547.22;4879070;29;20796;-72
2022/03/09 04:14:26;;;;;;;28.63;13.80;;;;;;;-1.22;76.62;101547.91;4879346;29;20053;-73
2022/03/09 04:16:54;;;;;;;28.13;12.90;;;;;;;-1.24;77.31;101557.97;4878926;29;20063;-72
2022/03/09 04:19:23;;;;;;;34.95;14.43;;;;;;;-1.21;77.22;101552.25;4878590;29;20497;-72
2022/03/09 04:21:51;;;;;;;27.23;12.73;;;;;;;-1.14;76.79;101550.53;4879272;29;20064;-71
2022/03/09 04:24:19;;;;;;;30.13;14.50;;;;;;;-1.15;76.59;101548.88;4878952;29;20044;-73
2022/03/09 04:26:47;;;;;;;34.92;15.02;;;;;;;-1.04;76.13;101549.47;4878968;29;20112;-73
2022/03/09 04:29:15;;;;;;;30.95;13.68;;;;;;;-1.06;75.99;101546.97;4879016;29;20073;-73
2022/03/09 04:31:43;;;;;;;29.85;13.32;;;;;;;-1.19;77.13;101542.16;4878324;29;20071;-73
2022/03/09 04:34:11;;;;;;;32.60;14.23;;;;;;;-1.24;77.40;101549.91;4878663;29;20065;-73
2022/03/09 04:36:39;;;;;;;31.60;14.00;;;;;;;-1.33;77.37;101549.13;4879118;29;20040;-73
2022/03/09 04:39:09;;;;;;;32.55;13.07;;;;;;;-1.38;77.15;101551.50;4890896;29;20057;-73
2022/03/09 04:41:37;;;;;;;28.55;13.38;;;;;;;-1.36;76.76;101552.19;4878502;29;20053;-73
2022/03/09 04:44:05;;;;;;;28.55;13.40;;;;;;;-1.44;77.01;101550.38;4879312;29;20060;-72
2022/03/09 04:46:33;;;;;;;32.78;14.48;;;;;;;-1.45;76.45;101554.06;4866348;29;20049;-73
2022/03/09 04:49:01;;;;;;;25.05;12.68;;;;;;;-1.53;77.12;101568.38;4878631;29;20084;-72
2022/03/09 04:51:29;;;;;;;24.98;11.73;;;;;;;-1.60;77.30;101558.50;4878625;29;20060;-73
2022/03/09 04:53:57;;;;;;;27.35;12.55;;;;;;;-1.73;77.85;101569.78;4879334;29;20065;-72
2022/03/09 04:56:25;;;;;;;26.63;13.30;;;;;;;-1.75;77.56;101569.97;4878657;29;20052;-73
2022/03/09 04:58:53;;;;;;;26.42;13.32;;;;;;;-1.81;77.56;101573.34;4878572;29;20045;-73
2022/03/09 05:01:21;;;;;;;23.42;11.98;;;;;;;-1.79;78.14;101565.94;4877964;29;20080;-73
2022/03/09 05:03:49;;;;;;;27.77;12.02;;;;;;;-1.81;78.18;101559.94;4878838;29;20539;-73
2022/03/09 05:06:17;;;;;;;25.02;12.63;;;;;;;-1.84;78.28;101568.31;4878978;29;20396;-73
2022/03/09 05:08:45;;;;;;;33.42;13.70;;;;;;;-1.85;78.38;101559.44;4878523;29;20174;-73
2022/03/09 05:11:13;;;;;;;29.95;13.48;;;;;;;-1.90;78.58;101554.56;4877181;29;20412;-73
2022/03/09 05:13:41;;;;;;;30.35;14.05;;;;;;;-1.76;80.01;101560.25;4878457;29;20053;-73
2022/03/09 05:16:09;;;;;;;26.20;13.77;;;;;;;-1.77;78.95;101566.59;4878331;29;20060;-73
2022/03/09 05:18:40;;;;;;;30.42;12.70;;;;;;;-1.80;79.41;101566.97;4877920;29;20053;-73
2022/03/09 05:21:09;;;;;;;25.90;12.23;;;;;;;-1.65;78.54;101570.59;4878862;29;20064;-72
2022/03/09 05:23:37;;;;;;;33.28;13.38;;;;;;;-1.66;78.45;101585.03;4878585;29;20085;-73
2022/03/09 05:26:05;;;;;;;30.42;13.68;;;;;;;-1.73;78.89;101584.03;4878034;29;20052;-73
2022/03/09 05:28:34;;;;;;;28.00;12.90;;;;;;;-1.70;79.42;101581.03;4878261;29;20049;-72
2022/03/09 05:31:03;;;;;;;27.98;13.05;;;;;;;-1.72;79.39;101583.03;4878491;29;20049;-73
2022/03/09 05:33:31;;;;;;;33.17;13.98;;;;;;;-1.77;79.48;101578.19;4878591;29;20049;-73
2022/03/09 05:35:59;;;;;;;27.73;13.55;;;;;;;-1.80;79.81;101575.84;4878475;29;20397;-73
2022/03/09 05:38:28;;;;;;;28.38;12.07;;;;;;;-1.81;79.64;101576.03;4885610;29;20053;-72
2022/03/09 05:40:56;;;;;;;26.75;12.63;;;;;;;-1.80;79.69;101577.69;4881403;29;20053;-72
2022/03/09 05:43:24;;;;;;;26.08;12.70;;;;;;;-1.79;79.42;101580.22;4879507;29;20049;-73
2022/03/09 05:45:52;;;;;;;27.98;12.68;;;;;;;-1.74;79.87;101587.75;4875836;29;20072;-72
2022/03/09 05:48:22;;;;;;;31.45;13.85;;;;;;;-1.57;79.15;101595.75;4892613;29;20052;-72
2022/03/09 05:50:50;;;;;;;27.52;12.63;;;;;;;-1.48;79.08;101602.75;4881768;29;20052;-72
2022/03/09 05:53:18;;;;;;;37.45;12.13;;;;;;;-1.39;78.96;101606.22;4881787;29;20040;-73
2022/03/09 05:55:46;;;;;;;23.63;12.40;;;;;;;-1.35;78.46;101616.44;4881379;29;20057;-72
2022/03/09 05:58:14;;;;;;;31.52;12.90;;;;;;;-1.28;77.10;101613.91;4880190;29;20041;-72
2022/03/09 06:00:42;;;;;;;30.13;13.20;;;;;;;-1.02;75.62;101615.44;4879705;29;20065;-72
2022/03/09 06:03:10;;;;;;;27.80;12.35;;;;;;;-0.80;74.42;101630.94;4879675;29;20409;-70
2022/03/09 06:05:38;;;;;;;30.92;11.50;;;;;;;-0.86;74.86;101627.94;4878945;29;20048;-71
2022/03/09 06:08:07;;;;;;;24.73;12.43;;;;;;;-0.68;74.60;101638.41;4880214;29;20057;-71
2022/03/09 06:10:35;;;;;;;29.70;12.95;;;;;;;-0.70;74.66;101628.84;4875926;29;20512;-70
2022/03/09 06:13:03;;;;;;;29.02;12.32;;;;;;;-0.65;74.30;101633.72;4878652;29;20049;-70
2022/03/09 06:15:31;;;;;;;27.67;13.68;;;;;;;-0.30;72.62;101640.31;4878285;29;20064;-70
2022/03/09 06:17:59;;;;;;;30.42;13.68;;;;;;;-0.29;72.83;101649.22;4880056;29;20049;-70
2022/03/09 06:20:28;;;;;;;27.90;12.68;;;;;;;-0.13;72.61;101645.56;4879852;29;20053;-71
2022/03/09 06:22:56;;;;;;;27.77;11.65;;;;;;;0.46;71.98;101641.25;4868292;29;20412;-83
2022/03/09 06:25:24;;;;;;;32.63;12.98;;;;;;;0.89;68.26;101655.91;4878655;29;20041;-83
2022/03/09 06:27:55;;;;;;;28.80;11.93;;;;;;;1.38;67.44;101654.38;4848248;29;20056;-82
2022/03/09 06:30:27;;;;;;;29.30;12.77;;;;;;;1.30;68.07;101652.63;4838504;29;20084;-83
2022/03/09 06:32:56;;;;;;;27.55;13.75;;;;;;;1.66;66.96;101650.91;4863404;29;20049;-83
2022/03/09 06:35:24;;;;;;;30.25;14.60;;;;;;;1.85;65.92;101651.25;4862837;29;20053;-84
2022/03/09 06:37:53;;;;;;;33.53;14.90;;;;;;;1.96;66.09;101649.91;4862738;29;20068;-83
2022/03/09 06:40:21;;;;;;;30.13;13.43;;;;;;;2.26;65.09;101657.81;4848295;29;20052;-84
2022/03/09 06:42:49;;;;;;;29.88;14.90;;;;;;;2.49;63.93;101671.03;4863680;29;20056;-72
2022/03/09 06:45:23;;;;;;;34.28;14.82;;;;;;;2.05;65.31;101659.50;4880329;29;20048;-72
2022/03/09 06:47:52;;;;;;;37.65;16.05;;;;;;;1.73;66.65;101664.47;4879837;29;20049;-71
2022/03/09 06:50:20;;;;;;;30.17;14.18;;;;;;;1.83;66.15;101667.66;4880793;29;20408;-72
2022/03/09 06:52:48;;;;;;;32.13;13.90;;;;;;;1.51;66.52;101672.53;4880491;29;20049;-71
2022/03/09 06:55:16;;;;;;;33.67;15.70;;;;;;;1.51;66.30;101674.44;4879333;29;20060;-72
2022/03/09 06:57:44;;;;;;;33.33;15.55;;;;;;;1.72;66.35;101681.69;4880218;29;20048;-71
2022/03/09 07:00:16;;;;;;;33.33;15.57;;;;;;;1.90;65.40;101683.09;4880165;29;20045;-72
2022/03/09 07:02:45;;;;;;;31.48;13.65;;;;;;;1.83;65.17;101683.88;4880263;29;20056;-72
2022/03/09 07:05:13;;;;;;;31.73;15.60;;;;;;;1.96;65.50;101690.41;4879701;29;20529;-72
2022/03/09 07:07:41;;;;;;;32.85;15.93;;;;;;;2.23;63.98;101682.50;4880012;29;20063;-72
2022/03/09 07:10:13;;;;;;;32.97;14.88;;;;;;;2.69;63.40;101681.97;4879805;29;20052;-72
2022/03/09 07:12:45;;;;;;;27.30;13.40;;;;;;;2.78;61.59;101685.34;4880481;29;20045;-72
2022/03/09 07:15:14;;;;;;;27.85;15.10;;;;;;;2.84;61.33;101686.41;4880071;29;20057;-72
2022/03/09 07:17:45;;;;;;;29.75;15.40;;;;;;;2.73;61.75;101678.88;4879683;29;20049;-72
2022/03/09 07:20:13;;;;;;;32.13;15.48;;;;;;;3.08;61.81;101678.81;4879696;29;20049;-72
2022/03/09 07:22:42;;;;;;;30.17;15.05;;;;;;;3.22;61.46;101688.63;4867104;29;20062;-72
2022/03/09 07:25:12;;;;;;;34.70;14.93;;;;;;;3.55;60.22;101686.22;4880032;29;20076;-72
2022/03/09 07:27:41;;;;;;;33.88;15.55;;;;;;;3.88;57.18;101683.56;4879733;29;20045;-72
2022/03/09 07:30:11;;;;;;;33.33;14.57;;;;;;;4.08;56.64;101690.00;4879998;29;20804;-73
2022/03/09 07:32:40;;;;;;;31.05;14.93;;;;;;;4.29;55.72;101695.22;4879854;29;20420;-72
2022/03/09 07:35:22;;;;;;;29.95;14.50;;;;;;;3.86;58.00;101706.47;4879796;29;20508;-72
2022/03/09 07:37:51;;;;;;;32.72;14.95;;;;;;;3.92;57.37;101700.22;4879878;29;20059;-72
2022/03/09 07:40:20;;;;;;;29.83;15.10;;;;;;;4.29;55.74;101699.78;4879785;29;20509;-72
2022/03/09 07:42:48;;;;;;;30.38;15.27;;;;;;;4.32;56.31;101698.53;4879898;29;20070;-71
2022/03/09 07:45:21;;;;;;;29.83;14.68;;;;;;;4.11;55.94;101700.44;4879353;29;20045;-72
2022/03/09 07:47:49;;;;;;;30.38;15.60;;;;;;;4.19;55.96;101702.94;4877922;29;20077;-72
2022/03/09 07:50:17;;;;;;;31.73;15.57;;;;;;;4.67;54.38;101700.97;4879294;29;20053;-71
2022/03/09 07:52:45;;;;;;;28.63;14.68;;;;;;;5.11;53.11;101707.53;4879241;29;20045;-72
2022/03/09 07:55:13;;;;;;;28.02;15.00;;;;;;;4.84;52.61;101707.63;4879260;29;20130;-73
2022/03/09 07:57:41;;;;;;;31.38;14.55;;;;;;;4.91;53.20;101712.19;4878906;29;20049;-73
2022/03/09 08:00:10;;;;;;;30.45;15.45;;;;;;;5.06;52.89;101704.63;4878783;29;20056;-72
2022/03/09 08:02:43;;;;;;;30.20;14.88;;;;;;;5.57;51.37;101709.38;4878586;29;20060;-71
2022/03/09 08:05:12;;;;;;;27.45;13.65;;;;;;;5.58;50.97;101711.84;4878542;29;20064;-71
2022/03/09 08:07:39;;;;;;;31.23;16.30;;;;;;;5.57;51.65;101709.38;4879030;29;20052;-72
2022/03/09 08:10:09;;;;;;;29.15;15.35;;;;;;;5.57;51.20;101709.38;4879047;29;20053;-72
2022/03/09 08:12:38;;;;;;;32.70;15.80;;;;;;;5.92;50.84;101711.66;4879232;29;20049;-71
2022/03/09 08:15:10;;;;;;;31.85;15.73;;;;;;;5.77;50.79;101709.25;4879286;29;20069;-71
2022/03/09 08:17:38;;;;;;;35.88;16.33;;;;;;;5.93;52.46;101710.59;4866491;29;20060;-71
2022/03/09 08:20:07;;;;;;;32.33;16.63;;;;;;;6.11;50.35;101698.16;4878907;29;20420;-71
2022/03/09 08:22:35;;;;;;;28.33;15.75;;;;;;;6.15;48.73;101700.19;4879107;29;20041;-72
2022/03/09 08:25:04;;;;;;;36.00;17.65;;;;;;;6.14;50.22;101695.81;4879216;29;20426;-72
2022/03/09 08:27:32;;;;;;;30.85;16.70;;;;;;;6.17;50.64;101687.22;4878438;29;20049;-71
2022/03/09 08:30:02;;;;;;;33.90;17.55;;;;;;;7.06;47.81;101682.50;4878389;29;20063;-72
2022/03/09 08:32:30;;;;;;;32.42;17.10;;;;;;;7.18;47.63;101690.72;4878409;29;20057;-72
2022/03/09 08:34:58;;;;;;;41.67;17.13;;;;;;;7.12;49.04;101680.75;4878689;29;20060;-71
2022/03/09 08:37:26;;;;;;;32.63;17.88;;;;;;;6.96;48.85;101691.22;4878579;29;20045;-71
2022/03/09 08:39:53;;;;;;;35.53;18.50;;;;;;;6.74;50.41;101692.75;4878425;29;20059;-72
2022/03/09 08:42:22;;;;;;;33.30;16.90;;;;;;;6.38;50.99;101684.31;4878178;29;20060;-72
2022/03/09 08:44:51;;;;;;;37.45;18.58;;;;;;;6.87;50.25;101673.53;4877903;29;20064;-72
2022/03/09 08:47:19;;;;;;;32.83;17.13;;;;;;;6.77;49.07;101689.53;4878731;29;20053;-79
2022/03/09 08:49:47;;;;;;;35.50;17.20;;;;;;;6.99;48.90;101682.59;4878498;29;20053;-78
2022/03/09 08:52:15;;;;;;;33.85;17.33;;;;;;;7.31;48.08;101675.28;4878620;29;20053;-77
2022/03/09 08:54:43;;;;;;;34.78;16.30;;;;;;;7.68;47.32;101679.78;4878156;29;20061;-77
2022/03/09 08:57:11;;;;;;;36.13;18.25;;;;;;;7.78;46.61;101683.59;4878858;29;20056;-77
2022/03/09 08:59:39;;;;;;;31.45;16.92;;;;;;;8.33;46.41;101681.59;4878521;29;20056;-77
2022/03/09 09:02:07;;;;;;;35.90;18.05;;;;;;;8.25;44.57;101681.97;4878699;29;20385;-77
2022/03/09 09:04:35;;;;;;;37.65;17.00;;;;;;;8.71;44.22;101678.66;4878611;29;20061;-78
2022/03/09 09:07:06;;;;;;;40.25;18.13;;;;;;;9.25;43.44;101672.09;4878511;29;20056;-80
2022/03/09 09:09:34;;;;;;;36.72;17.02;;;;;;;8.66;42.84;101678.53;4878988;29;20060;-70
2022/03/09 09:12:02;;;;;;;34.03;16.10;;;;;;;8.77;43.33;101677.69;4878499;29;20056;-76
2022/03/09 09:14:30;;;;;;;29.35;15.52;;;;;;;7.94;43.85;101671.16;4859043;29;20053;-76
2022/03/09 09:16:58;;;;;;;28.30;15.18;;;;;;;8.41;43.92;101674.16;4876193;29;20057;-78
2022/03/09 09:19:27;;;;;;;35.10;16.35;;;;;;;8.86;42.63;101668.03;4880280;29;20052;-78
2022/03/09 09:21:55;;;;;;;32.22;16.77;;;;;;;9.29;40.64;101667.78;4865266;29;20060;-79
2022/03/09 09:24:23;;;;;;;33.63;15.80;;;;;;;9.86;39.66;101666.03;4850702;29;20053;-77
2022/03/09 09:26:51;;;;;;;28.50;14.77;;;;;;;9.57;39.70;101668.03;4850807;29;20049;-77
2022/03/09 09:29:29;;;;;;;31.88;15.45;;;;;;;9.68;38.60;101665.19;4852158;29;20048;-77
2022/03/09 09:31:57;;;;;;;27.83;15.10;;;;;;;9.86;40.06;101659.72;4879941;29;20064;-75
2022/03/09 09:34:25;;;;;;;25.38;15.13;;;;;;;9.72;38.19;101662.81;4881966;29;20514;-75
2022/03/09 09:36:54;;;;;;;27.98;14.38;;;;;;;9.53;39.61;101656.72;4881943;29;20056;-74
2022/03/09 09:39:23;;;;;;;28.55;13.90;;;;;;;10.03;38.54;101646.06;4881578;29;20049;-74
2022/03/09 09:41:52;;;;;;;26.67;15.15;;;;;;;9.90;39.46;101649.97;4881957;29;20057;-75
2022/03/09 09:44:23;;;;;;;22.88;13.25;;;;;;;10.32;39.37;101644.03;4881867;29;20049;-76
2022/03/09 09:46:54;;;;;;;29.58;14.50;;;;;;;10.78;37.99;101644.91;4881763;29;20512;-73
2022/03/09 09:49:24;;;;;;;29.13;14.07;;;;;;;10.97;38.53;101635.31;4865157;29;20057;-72
2022/03/09 09:51:53;;;;;;;32.47;14.15;;;;;;;10.75;38.39;101641.63;4850199;29;20076;-73
2022/03/09 09:54:23;;;;;;;33.25;15.70;;;;;;;10.03;39.81;101641.41;4850002;29;20053;-72
2022/03/09 09:56:52;;;;;;;34.70;15.05;;;;;;;10.37;39.41;101650.66;4846492;29;20054;-72
2022/03/09 09:59:21;;;;;;;27.60;14.38;;;;;;;9.85;40.84;101637.06;4861718;29;20049;-72
2022/03/09 10:01:49;;;;;;;42.30;14.55;;;;;;;10.47;40.04;101646.19;4862437;29;20061;-72
2022/03/09 10:04:18;;;;;;;28.48;13.95;;;;;;;10.64;39.73;101645.31;4849516;29;20405;-71
2022/03/09 10:06:46;;;;;;;30.00;14.80;;;;;;;11.34;37.92;101647.44;4849569;29;20061;-71
2022/03/09 10:09:14;;;;;;;26.15;14.27;;;;;;;11.26;38.06;101639.72;4864913;29;20045;-71
2022/03/09 10:11:50;;;;;;;28.33;15.25;;;;;;;11.38;38.02;101636.81;4846715;29;20061;-71
2022/03/09 10:14:43;;;;;;;26.85;15.00;;;;;;;11.37;38.53;101641.47;4849369;29;20056;-72
2022/03/09 10:17:14;;;;;;;26.48;14.32;;;;;;;11.23;37.85;101635.56;4849543;29;20056;-71
2022/03/09 10:19:45;;;;;;;25.10;13.45;;;;;;;11.22;36.69;101633.94;4849238;29;20425;-72
2022/03/09 10:22:41;;;;;;;27.58;14.55;;;;;;;11.18;36.09;101638.25;4849561;29;20057;-72
2022/03/09 10:25:25;;;;;;;27.88;14.02;;;;;;;11.58;36.06;101638.91;4850554;29;20057;-69
2022/03/09 10:27:55;;;;;;;25.85;14.90;;;;;;;11.57;35.89;101637.25;4879281;29;20068;-69
2022/03/09 10:30:29;;;;;;;30.98;14.50;;;;;;;11.47;36.07;101629.78;4879168;29;20052;-69
2022/03/09 10:32:58;;;;;;;;;;;;;;;11.83;34.77;101618.25;4880633;29;20068;-69
2022/03/09 10:35:27;;;;;;;25.38;13.93;;;;;;;12.07;35.31;101632.47;4880277;29;19928;-69
2022/03/09 10:37:57;;;;;;;26.17;13.88;;;;;;;12.49;33.76;101624.47;4880401;29;20065;-69
2022/03/09 10:40:26;;;;;;;28.58;15.93;;;;;;;12.41;35.29;101628.53;4880209;29;20370;-69
2022/03/09 10:43:14;;;;;;;25.05;13.77;;;;;;;12.65;34.06;101625.34;4880128;29;20053;-69
2022/03/09 10:46:08;;;;;;;29.42;14.35;;;;;;;12.32;35.07;101632.91;4880217;29;20042;-69
2022/03/09 10:49:00;;;;;;;23.83;13.13;;;;;;;11.71;36.38;101621.19;4880243;29;20069;-69
2022/03/09 10:51:33;;;;;;;24.08;13.30;;;;;;;11.97;35.97;101624.13;4879676;29;20057;-69
2022/03/09 10:54:11;;;;;;;26.05;13.63;;;;;;;12.62;34.56;101618.47;4880546;29;20507;-69
2022/03/09 10:56:39;;;;;;;27.50;14.00;;;;;;;12.90;33.09;101624.63;4880244;29;20060;-69
2022/03/09 10:59:20;;;;;;;24.58;13.00;;;;;;;12.99;33.06;101616.69;4880344;29;20053;-69
2022/03/09 11:02:08;;;;;;;24.15;12.82;;;;;;;13.01;32.20;101614.47;4878976;29;20064;-69
2022/03/09 11:04:38;;;;;;;25.85;13.57;;;;;;;12.57;33.95;101612.97;4878587;29;20048;-69
2022/03/09 11:07:06;;;;;;;24.50;13.35;;;;;;;12.30;32.74;101619.44;4879919;29;20402;-69
2022/03/09 11:09:36;;;;;;;26.75;13.68;;;;;;;12.60;33.21;101609.69;4879896;29;20060;-69
2022/03/09 11:12:05;;;;;;;27.35;14.15;;;;;;;13.11;33.78;101607.38;4879287;29;20084;-69
2022/03/09 11:14:33;;;;;;;24.05;14.32;;;;;;;13.27;33.26;101608.22;4880074;29;20508;-69
2022/03/09 11:17:01;;;;;;;29.75;14.55;;;;;;;13.59;31.45;101601.66;4878960;29;20056;-69
2022/03/09 11:19:29;;;;;;;29.05;15.07;;;;;;;13.04;33.29;101608.47;4879337;29;20057;-69
2022/03/09 11:21:57;;;;;;;29.05;14.25;;;;;;;13.12;33.17;101604.34;4879625;29;20052;-69
2022/03/09 11:24:25;;;;;;;30.00;14.60;;;;;;;12.78;33.66;101599.31;4877802;29;20532;-69